joomla templates top joomla templates template joomla

King Air Abend

Notam

C3641/14 - CUSTOMS AVBL PPR, TEL 0049 9561 92098. 13 NOV 14:46 2014 UNTIL PERM. CREATED: 13 NOV 14:47 2014

Neue Wetteranzeige

Aktuelles Platzwetter 18.01.2017 18:02Z

AvgMinMax
Windrichtung7040100Deg
Windgeschwindigkeit7411kt
Sichtweite>10000m
Temperatur-7°C
Taupunkt-9°C
Feuchte90%
QNH1035.8hPa
QFE981.4hPa
WolkenSKC


707 kt

Aerodrome Terminal Information Service (ATIS) Coburg

METAR
EDQC 181750Z AUTO 07006KT 040V100 CAVOK M07/M09 Q1035=

METAR und TAF der Umgebung

[Quelle: ADDS]
METAR
EDDF 181750Z 05012KT CAVOK M02/M08 Q1037 R88/0///95 NOSIG =
EDDN 181750Z VRB02KT CAVOK M07/M10 Q1035 NOSIG =
EDDE 181750Z 11004KT 080V160 9999 BKN011 M06/M08 Q1038 R88/19//95 TEMPO BKN009 =
TAF
EDDF 181700Z 1818/1924 04008KT CAVOK =
EDDN 181700Z 1818/1918 06006KT 9999 SCT020 =
EDDE 181700Z 1818/1918 VRB03KT 9999 BKN012 TEMPO 1818/1821 4000 BR BKN009 BECMG 1821/1824 4000 BR BKN009 PROB40 TEMPO 1821/1909 0100 FZFG OVC001 BECMG 1909/1912 7000 BKN040 =
SR / SS: 07:07 / 15:49 UTC (EDQC 2017-01-18)

Windvorhersage

Verkehrslandeplatz Coburg Brandensteinsebene
Tower
Zur Brandensteinsebene
96450 Coburg

AeroClub Logo 200px

Aero Club Coburg e. V.
Postfach 11 09
96401 Coburg